createdAt,value
2023-03-27T00:03:21.265Z,43.01
2023-03-27T00:07:21.173Z,36.81
2023-03-27T00:11:21.163Z,40.44
2023-03-27T00:15:21.121Z,38.48
2023-03-27T00:19:21.062Z,41.13
2023-03-27T00:23:21.271Z,38.29
2023-03-27T00:27:21.260Z,39.15
2023-03-27T00:31:21.223Z,37.19
2023-03-27T00:35:21.182Z,38.00
2023-03-27T00:39:21.142Z,37.56
2023-03-27T00:43:21.104Z,38.35
2023-03-27T00:47:21.047Z,35.28
2023-03-27T00:51:21.036Z,35.77
2023-03-27T00:55:20.987Z,36.99
2023-03-27T00:59:20.947Z,36.32
2023-03-27T01:03:21.165Z,36.40
2023-03-27T01:07:21.094Z,36.14
2023-03-27T01:11:21.043Z,36.99
2023-03-27T01:15:21.012Z,34.93
2023-03-27T01:19:20.973Z,37.48
2023-03-27T01:23:36.069Z,36.66
2023-03-27T01:27:21.890Z,38.81
2023-03-27T01:31:20.985Z,37.26
2023-03-27T01:35:20.936Z,34.74
2023-03-27T01:39:20.846Z,37.35
2023-03-27T01:43:20.827Z,35.85
2023-03-27T01:47:20.776Z,36.81
2023-03-27T01:51:20.762Z,35.74
2023-03-27T01:55:20.706Z,38.69
2023-03-27T01:59:20.663Z,36.28
2023-03-27T02:03:20.667Z,33.02
2023-03-27T02:07:20.602Z,34.18
2023-03-27T02:11:20.553Z,32.89
2023-03-27T02:15:22.411Z,36.72
2023-03-27T02:19:21.479Z,36.14
2023-03-27T02:23:20.465Z,33.36
2023-03-27T02:27:20.397Z,35.43
2023-03-27T02:31:31.838Z,34.81
2023-03-27T02:35:21.388Z,36.70
2023-03-27T02:39:20.328Z,36.85
2023-03-27T02:43:20.350Z,33.28
2023-03-27T02:51:20.219Z,35.85
2023-03-27T02:55:20.160Z,35.14
2023-03-27T02:59:20.175Z,34.99
2023-03-27T06:19:26.195Z,28.99
2023-03-27T10:15:19.053Z,120.79
2023-03-27T11:15:18.794Z,237.00
2023-03-27T11:43:19.021Z,232.40
2023-03-27T11:51:18.948Z,218.21
2023-03-27T11:59:18.848Z,206.91
2023-03-27T12:07:26.350Z,197.44
2023-03-27T12:15:18.746Z,191.14
2023-03-27T12:19:28.505Z,186.50
2023-03-27T12:27:18.622Z,176.08
2023-03-27T12:31:18.606Z,166.98
2023-03-27T12:35:22.005Z,159.74
2023-03-27T12:39:18.494Z,154.07
2023-03-27T12:47:18.429Z,147.45
2023-03-27T12:51:18.402Z,147.38
2023-03-27T12:55:18.377Z,144.73
2023-03-27T12:59:18.307Z,145.70
2023-03-27T13:03:18.395Z,142.13
2023-03-27T13:07:18.252Z,137.37
2023-03-27T13:11:18.232Z,137.25
2023-03-27T13:15:18.261Z,137.45
2023-03-27T13:19:18.173Z,131.63
2023-03-27T13:23:18.114Z,129.19
2023-03-27T13:27:18.072Z,126.73
2023-03-27T13:31:18.076Z,123.00
2023-03-27T13:35:17.981Z,120.49
2023-03-27T13:39:18.115Z,118.38
2023-03-27T13:43:17.922Z,117.49
2023-03-27T13:47:17.876Z,115.93
2023-03-27T13:51:17.825Z,113.18
2023-03-27T13:55:17.838Z,112.31
2023-03-27T13:59:17.801Z,109.90
2023-03-27T14:03:17.973Z,107.71
2023-03-27T14:07:17.706Z,106.86
2023-03-27T14:11:17.680Z,107.08
2023-03-27T14:15:17.848Z,104.43
2023-03-27T14:19:17.588Z,100.87
2023-03-27T14:23:17.582Z,98.51
2023-03-27T14:27:17.570Z,97.06
2023-03-27T14:31:17.505Z,97.28
2023-03-27T14:35:17.475Z,98.10
2023-03-27T14:39:17.483Z,98.77
2023-03-27T14:43:17.582Z,96.98
2023-03-27T14:47:17.688Z,95.09
2023-03-27T14:51:17.891Z,94.74
2023-03-27T14:55:17.876Z,95.26
2023-03-27T14:59:17.991Z,96.07
2023-03-27T15:03:18.111Z,95.78
2023-03-27T15:07:18.198Z,95.04
2023-03-27T15:11:18.346Z,95.46
2023-03-27T15:15:18.469Z,94.26
2023-03-27T15:19:18.596Z,93.52
2023-03-27T15:23:18.736Z,93.92
2023-03-27T15:27:18.864Z,93.73
2023-03-27T15:31:19.018Z,90.54
2023-03-27T15:35:19.170Z,91.61
2023-03-27T15:39:19.230Z,91.40
2023-03-27T15:43:19.393Z,89.63
2023-03-27T15:47:19.481Z,90.70
2023-03-27T15:51:19.684Z,89.30
2023-03-27T15:55:19.733Z,89.24
2023-03-27T15:59:19.839Z,89.12
2023-03-27T16:03:20.439Z,88.19
2023-03-27T16:07:20.110Z,88.09
2023-03-27T16:11:20.237Z,86.10
2023-03-27T16:15:20.341Z,85.27
2023-03-27T16:19:20.500Z,85.77
2023-03-27T16:23:20.637Z,86.43
2023-03-27T16:27:20.773Z,85.59
2023-03-27T16:31:20.932Z,84.61
2023-03-27T16:35:21.069Z,84.14
2023-03-27T16:39:21.181Z,83.46
2023-03-27T16:43:21.340Z,83.49
2023-03-27T16:47:21.720Z,81.66
2023-03-27T16:51:21.634Z,80.26
2023-03-27T16:55:21.816Z,80.81
2023-03-27T16:59:22.022Z,79.40
2023-03-27T17:03:22.129Z,80.60
2023-03-27T17:07:22.275Z,78.38
2023-03-27T17:11:22.426Z,77.88
2023-03-27T17:15:22.644Z,80.72
2023-03-27T17:19:22.752Z,78.48
2023-03-27T17:23:22.905Z,81.61
2023-03-27T20:03:25.234Z,58.38
2023-03-27T20:39:24.939Z,54.47
2023-03-27T20:43:24.912Z,54.05
2023-03-27T20:47:24.913Z,54.65
2023-03-27T20:51:25.175Z,53.36
2023-03-27T20:55:33.701Z,50.29
2023-03-27T21:03:24.785Z,52.50
2023-03-27T21:07:24.718Z,53.64
2023-03-27T21:11:24.674Z,51.86
2023-03-27T21:15:24.660Z,50.08
2023-03-27T21:19:24.642Z,48.04
2023-03-27T21:23:24.573Z,51.09
2023-03-27T21:27:24.514Z,48.99
2023-03-27T21:31:24.629Z,50.88
2023-03-27T21:35:24.494Z,51.05
2023-03-27T21:39:24.439Z,46.42
2023-03-27T21:43:24.395Z,48.93
2023-03-27T21:47:31.690Z,47.71
2023-03-27T21:51:25.342Z,48.88
2023-03-27T21:55:24.267Z,49.05
2023-03-27T21:59:24.426Z,47.37
2023-03-27T22:03:24.664Z,47.92
2023-03-27T22:07:24.832Z,46.01
2023-03-27T22:11:25.021Z,43.51
2023-03-27T22:15:25.184Z,46.90
2023-03-27T22:19:25.323Z,45.11
2023-03-27T22:23:25.561Z,45.80
2023-03-27T22:27:25.623Z,44.92
2023-03-27T22:31:25.776Z,45.95
2023-03-27T22:35:25.865Z,45.49
2023-03-27T22:39:25.908Z,42.75
2023-03-27T22:43:26.146Z,43.66
2023-03-27T22:47:26.139Z,44.27
2023-03-27T22:51:26.230Z,40.84
2023-03-27T22:55:26.393Z,42.62
2023-03-27T22:59:26.531Z,41.08
2023-03-27T23:03:26.708Z,43.68
2023-03-27T23:07:26.683Z,40.72
2023-03-27T23:11:26.806Z,39.73
2023-03-27T23:15:30.184Z,41.38
2023-03-27T23:19:26.900Z,43.02
2023-03-27T23:23:26.897Z,41.90
2023-03-27T23:27:26.846Z,42.48
2023-03-27T23:31:26.838Z,40.95
2023-03-27T23:35:26.766Z,43.85
2023-03-27T23:39:26.715Z,41.65
2023-03-27T23:43:26.660Z,36.77
2023-03-27T23:47:26.681Z,38.31
2023-03-27T23:51:26.594Z,39.20
2023-03-27T23:55:26.550Z,38.15
2023-03-27T23:59:26.525Z,39.27
